Time;durP1;ratioP1;P1;durP2;ratioP2;P2;SDS_P1;SDS_P2;PMS_P1;PMS_P2;Temp;Humidity;BMP_temperature;BMP_pressure;BME280_temperature;BME280_humidity;BME280_pressure;Samples;Min_cycle;Max_cycle;Signal;HPM_P1;HPM_P2
2021/05/05 00:01:51;;;;;;;3.97;2.73;;;5.20;99.90;;;;;;5076682;28;20317;-67
2021/05/05 00:04:18;;;;;;;2.67;2.43;;;5.20;99.90;;;;;;5071340;28;20202;-67
2021/05/05 00:06:45;;;;;;;5.73;2.60;;;5.20;99.90;;;;;;5070578;28;20659;-67
2021/05/05 00:09:11;;;;;;;4.27;3.10;;;5.30;99.90;;;;;;5071869;28;20235;-67
2021/05/05 00:11:40;;;;;;;3.37;2.90;;;5.30;99.90;;;;;;5073372;28;20225;-67
2021/05/05 00:14:07;;;;;;;4.33;2.83;;;5.40;99.90;;;;;;5070535;28;20198;-68
2021/05/05 00:16:33;;;;;;;4.30;3.27;;;5.50;99.90;;;;;;5076149;28;20244;-69
2021/05/05 00:19:00;;;;;;;4.23;2.77;;;5.70;99.90;;;;;;5070741;28;20195;-70
2021/05/05 00:21:26;;;;;;;4.57;3.00;;;5.80;99.90;;;;;;5070854;28;20634;-71
2021/05/05 00:23:53;;;;;;;4.10;2.70;;;5.90;99.90;;;;;;5071035;28;20223;-69
2021/05/05 00:26:19;;;;;;;3.30;2.60;;;6.00;99.90;;;;;;5074699;28;20287;-71
2021/05/05 00:28:47;;;;;;;5.00;2.83;;;6.00;99.90;;;;;;5070484;28;20222;-71
2021/05/05 00:31:15;;;;;;;4.97;2.90;;;6.00;99.90;;;;;;5075074;28;20934;-70
2021/05/05 00:33:41;;;;;;;5.13;3.03;;;6.00;99.90;;;;;;5072895;28;20218;-68
2021/05/05 00:36:08;;;;;;;4.53;3.43;;;5.90;99.90;;;;;;5071743;28;20207;-77
2021/05/05 00:38:34;;;;;;;5.50;3.40;;;5.90;99.90;;;;;;5071341;28;20654;-74
2021/05/05 00:41:05;;;;;;;6.97;3.97;;;5.90;99.90;;;;;;5070366;28;20672;-69
2021/05/05 00:43:31;;;;;;;6.33;3.90;;;5.80;99.90;;;;;;5071157;28;20194;-70
2021/05/05 00:45:59;;;;;;;3.97;3.53;;;5.80;99.90;;;;;;5075865;28;20211;-70
2021/05/05 00:48:26;;;;;;;8.67;3.90;;;5.80;99.90;;;;;;5069925;28;20210;-68
2021/05/05 00:50:53;;;;;;;5.47;4.00;;;5.80;99.90;;;;;;5071761;28;20229;-69
2021/05/05 00:53:19;;;;;;;6.50;3.80;;;5.70;99.90;;;;;;5071532;28;20602;-76
2021/05/05 00:55:45;;;;;;;6.33;4.10;;;5.70;99.90;;;;;;5075718;28;20323;-71
2021/05/05 00:58:12;;;;;;;6.23;3.80;;;5.70;99.90;;;;;;5071074;28;20267;-67
2021/05/05 01:00:38;;;;;;;6.23;3.67;;;5.70;99.90;;;;;;5070603;28;20210;-67
2021/05/05 01:03:06;;;;;;;5.77;3.90;;;5.60;99.90;;;;;;5069487;28;20211;-68
2021/05/05 01:05:33;;;;;;;6.00;4.00;;;5.60;99.90;;;;;;5069378;28;20690;-68
2021/05/05 01:07:59;;;;;;;6.03;4.20;;;5.70;99.90;;;;;;5067761;28;20195;-70
2021/05/05 01:10:26;;;;;;;7.73;4.50;;;5.70;99.90;;;;;;5069281;28;20319;-68
2021/05/05 01:12:54;;;;;;;4.43;4.03;;;5.70;99.90;;;;;;5065317;28;20601;-71
2021/05/05 01:15:20;;;;;;;5.30;4.27;;;5.80;99.90;;;;;;5071199;28;20206;-69
2021/05/05 01:17:46;;;;;;;6.17;4.47;;;5.80;99.90;;;;;;5072104;28;20257;-71
2021/05/05 01:20:15;;;;;;;5.63;4.30;;;5.90;99.90;;;;;;5070268;28;20203;-69
2021/05/05 01:22:42;;;;;;;8.80;4.43;;;6.00;99.90;;;;;;5068487;28;20659;-71
2021/05/05 01:25:12;;;;;;;6.47;3.80;;;6.10;99.90;;;;;;5071507;28;20203;-73
2021/05/05 01:27:40;;;;;;;6.57;3.73;;;6.10;99.90;;;;;;5071356;28;20210;-67
2021/05/05 01:30:09;;;;;;;5.37;3.13;;;6.10;99.90;;;;;;5067935;28;20687;-67
2021/05/05 01:32:38;;;;;;;4.90;3.30;;;6.20;99.90;;;;;;5067640;28;20655;-68
2021/05/05 01:35:07;;;;;;;6.20;3.40;;;6.20;99.90;;;;;;5101300;28;20194;-69
2021/05/05 01:37:34;;;;;;;5.37;2.90;;;6.20;99.90;;;;;;5074012;28;20202;-71
2021/05/05 01:40:03;;;;;;;6.13;3.13;;;6.20;99.90;;;;;;5073802;28;20738;-78
2021/05/05 01:42:30;;;;;;;6.73;2.90;;;6.30;99.90;;;;;;5070396;28;20199;-69
2021/05/05 01:44:57;;;;;;;5.90;2.93;;;6.20;99.90;;;;;;5069357;28;20223;-78
2021/05/05 01:47:24;;;;;;;5.93;2.93;;;6.20;99.90;;;;;;5074012;28;20194;-67
2021/05/05 01:49:50;;;;;;;8.40;3.40;;;6.20;99.90;;;;;;5067496;28;20256;-77
2021/05/05 01:52:19;;;;;;;7.53;2.77;;;6.20;99.90;;;;;;5074416;28;20234;-72
2021/05/05 01:54:46;;;;;;;3.80;2.60;;;6.20;99.90;;;;;;5069330;28;20195;-70
2021/05/05 01:57:37;;;;;;;3.70;2.53;;;6.20;99.90;;;;;;5068495;28;20227;-71
2021/05/05 02:00:10;;;;;;;7.13;2.93;;;6.10;99.90;;;;;;5070284;28;20203;-69
2021/05/05 02:02:36;;;;;;;3.17;2.50;;;6.10;99.90;;;;;;5093646;28;20632;-69
2021/05/05 02:05:04;;;;;;;2.77;1.90;;;6.10;99.90;;;;;;5092957;28;20280;-75
2021/05/05 02:07:31;;;;;;;4.70;2.17;;;6.00;99.90;;;;;;5093826;28;20201;-72
2021/05/05 02:09:57;;;;;;;1.97;1.63;;;6.00;99.90;;;;;;5092023;28;20226;-69
2021/05/05 02:12:24;;;;;;;4.10;1.83;;;6.00;99.90;;;;;;5074758;28;20199;-71
2021/05/05 02:14:52;;;;;;;4.37;1.77;;;6.00;99.90;;;;;;5093374;28;20717;-72
2021/05/05 02:17:18;;;;;;;2.27;1.50;;;6.00;99.90;;;;;;5093457;28;20682;-76
2021/05/05 02:19:45;;;;;;;6.20;1.90;;;6.00;99.90;;;;;;5092355;28;21772;-71
2021/05/05 02:22:12;;;;;;;5.87;2.20;;;5.90;99.90;;;;;;5076032;28;20203;-69
2021/05/05 02:24:39;;;;;;;2.37;1.93;;;5.90;99.90;;;;;;5072953;28;20206;-72
2021/05/05 02:27:06;;;;;;;3.50;2.03;;;5.90;99.90;;;;;;5073207;28;20195;-68
2021/05/05 02:29:33;;;;;;;2.10;1.90;;;6.00;99.90;;;;;;5073107;28;20270;-71
2021/05/05 02:32:01;;;;;;;1.80;1.70;;;6.10;99.90;;;;;;5086215;28;20198;-68
2021/05/05 02:34:28;;;;;;;7.27;2.10;;;6.10;99.90;;;;;;5091945;28;20195;-71
2021/05/05 02:36:55;;;;;;;3.87;2.00;;;6.20;99.90;;;;;;5073207;28;20267;-75
2021/05/05 02:39:21;;;;;;;4.97;2.40;;;6.20;99.90;;;;;;5088429;28;20202;-76
2021/05/05 02:41:48;;;;;;;3.60;2.40;;;6.10;99.90;;;;;;5090952;28;20205;-74
2021/05/05 02:44:16;;;;;;;2.70;2.40;;;6.10;99.90;;;;;;5068322;28;20198;-71
2021/05/05 02:46:43;;;;;;;3.33;2.20;;;6.10;99.90;;;;;;5068117;28;20236;-70
2021/05/05 02:49:11;;;;;;;6.17;2.63;;;6.00;99.90;;;;;;5074100;28;20652;-72
2021/05/05 02:51:37;;;;;;;2.53;2.33;;;6.10;99.90;;;;;;5088710;28;20237;-79
2021/05/05 02:54:05;;;;;;;3.90;2.40;;;6.10;99.90;;;;;;5091628;28;20612;-76
2021/05/05 02:56:32;;;;;;;3.67;2.30;;;6.20;99.90;;;;;;5092679;28;20198;-77
2021/05/05 02:58:58;;;;;;;3.73;2.10;;;6.30;99.90;;;;;;5072861;28;20199;-73
2021/05/05 03:01:25;;;;;;;4.43;1.90;;;6.30;99.90;;;;;;5070965;28;22318;-74
2021/05/05 03:03:51;;;;;;;4.47;1.80;;;6.30;99.90;;;;;;5069615;28;20207;-77
2021/05/05 03:06:19;;;;;;;4.40;1.87;;;6.30;99.90;;;;;;5067922;28;20206;-77
2021/05/05 03:08:45;;;;;;;4.83;3.10;;;6.30;99.90;;;;;;5069708;28;20217;-76
2021/05/05 03:11:12;;;;;;;3.03;2.77;;;6.30;99.90;;;;;;5067029;28;20589;-79
2021/05/05 03:13:38;;;;;;;3.70;3.00;;;6.20;99.90;;;;;;5068837;28;20195;-77
2021/05/05 03:16:06;;;;;;;4.70;3.40;;;6.20;99.90;;;;;;5072171;28;20281;-78
2021/05/05 03:18:32;;;;;;;4.63;3.27;;;6.10;99.90;;;;;;5068599;28;20661;-77
2021/05/05 03:21:00;;;;;;;6.90;3.70;;;6.10;99.90;;;;;;5076208;28;20205;-75
2021/05/05 03:23:28;;;;;;;3.70;3.20;;;6.00;99.90;;;;;;5086663;28;20199;-79
2021/05/05 03:25:55;;;;;;;3.97;3.53;;;6.00;99.90;;;;;;5072184;28;20230;-78
2021/05/05 03:28:21;;;;;;;3.93;3.53;;;5.90;99.90;;;;;;5078019;28;20255;-78
2021/05/05 03:30:48;;;;;;;5.67;2.77;;;5.80;99.90;;;;;;5092328;28;20579;-75
2021/05/05 03:33:15;;;;;;;4.90;2.70;;;5.70;99.90;;;;;;5088830;28;20692;-77
2021/05/05 03:35:41;;;;;;;3.63;2.40;;;5.70;99.90;;;;;;5073727;28;20251;-74
2021/05/05 03:38:08;;;;;;;3.40;2.20;;;5.70;99.90;;;;;;5071939;28;20670;-77
2021/05/05 03:40:36;;;;;;;3.37;1.80;;;5.80;99.90;;;;;;5077085;28;20198;-77
2021/05/05 03:43:03;;;;;;;2.40;2.13;;;5.80;99.90;;;;;;5068484;28;20259;-73
2021/05/05 03:45:30;;;;;;;3.20;2.00;;;5.80;99.90;;;;;;5074091;28;20202;-75
2021/05/05 03:47:57;;;;;;;2.10;1.90;;;5.60;99.90;;;;;;5076495;28;20230;-74
2021/05/05 03:50:24;;;;;;;3.70;2.10;;;5.60;99.90;;;;;;5093484;28;20222;-77
2021/05/05 03:52:50;;;;;;;2.13;1.70;;;5.60;99.90;;;;;;5095561;28;20314;-75
2021/05/05 03:55:17;;;;;;;2.40;2.00;;;5.60;99.90;;;;;;5089255;28;20195;-79
2021/05/05 03:57:44;;;;;;;2.07;1.90;;;5.50;99.90;;;;;;5088939;28;20268;-78
2021/05/05 04:00:12;;;;;;;2.50;1.77;;;5.50;99.90;;;;;;5075386;28;20203;-79
2021/05/05 04:02:38;;;;;;;2.83;1.93;;;5.50;99.90;;;;;;5081592;28;20201;-78
2021/05/05 04:05:06;;;;;;;2.83;1.80;;;5.50;99.90;;;;;;5090561;28;20202;-79
2021/05/05 04:07:33;;;;;;;3.90;2.37;;;5.40;99.90;;;;;;5070086;28;20222;-76
2021/05/05 04:09:59;;;;;;;5.27;2.77;;;5.40;99.90;;;;;;5069930;28;20230;-75
2021/05/05 04:12:28;;;;;;;3.20;2.90;;;5.40;99.90;;;;;;5070947;28;20199;-77
2021/05/05 04:14:56;;;;;;;3.83;2.90;;;5.40;99.90;;;;;;5068853;28;20294;-75
2021/05/05 04:17:23;;;;;;;6.33;2.97;;;5.40;99.90;;;;;;5069107;28;20282;-76
2021/05/05 04:19:52;;;;;;;4.07;2.40;;;5.40;99.90;;;;;;5069522;28;20206;-73
2021/05/05 04:22:18;;;;;;;3.73;2.43;;;5.40;99.90;;;;;;5070616;28;20563;-77
2021/05/05 04:24:45;;;;;;;4.23;3.27;;;5.40;99.90;;;;;;5066373;28;20206;-76
2021/05/05 04:27:11;;;;;;;7.60;3.27;;;5.50;99.90;;;;;;5069261;28;20194;-76
2021/05/05 04:29:38;;;;;;;4.30;3.00;;;5.50;99.90;;;;;;5068883;28;20227;-77
2021/05/05 04:32:06;;;;;;;4.87;3.40;;;5.60;99.90;;;;;;5068317;28;20199;-74
2021/05/05 04:34:33;;;;;;;5.30;3.37;;;5.70;99.90;;;;;;5070093;28;20225;-74
2021/05/05 04:37:00;;;;;;;9.30;4.30;;;5.70;99.90;;;;;;5071520;28;20291;-73
2021/05/05 04:39:26;;;;;;;8.47;4.50;;;5.70;99.90;;;;;;5070117;28;20243;-74
2021/05/05 04:41:53;;;;;;;8.10;5.00;;;5.70;99.90;;;;;;5068247;28;20209;-76
2021/05/05 04:44:19;;;;;;;8.13;5.37;;;5.80;99.90;;;;;;5067775;28;20199;-76
2021/05/05 04:46:46;;;;;;;8.83;5.07;;;5.80;99.90;;;;;;5068902;28;20606;-74
2021/05/05 04:49:13;;;;;;;8.23;4.77;;;5.80;99.90;;;;;;5068944;28;20195;-75
2021/05/05 04:51:40;;;;;;;9.80;4.07;;;5.80;99.90;;;;;;5071494;28;20230;-76
2021/05/05 04:54:07;;;;;;;8.73;5.00;;;5.80;99.90;;;;;;5070173;28;20195;-75
2021/05/05 04:56:34;;;;;;;8.53;3.90;;;5.90;99.90;;;;;;5070418;28;20202;-75
2021/05/05 04:59:00;;;;;;;8.73;3.83;;;5.90;99.90;;;;;;5072299;28;20946;-73
2021/05/05 05:01:27;;;;;;;8.30;4.03;;;5.90;99.90;;;;;;5070873;28;20261;-76
2021/05/05 05:03:54;;;;;;;9.47;3.30;;;5.90;99.90;;;;;;5069759;28;20579;-69
2021/05/05 05:06:22;;;;;;;9.50;3.60;;;5.90;99.90;;;;;;5070755;28;20286;-76
2021/05/05 05:08:48;;;;;;;10.23;4.37;;;5.90;99.90;;;;;;5068348;28;20199;-70
2021/05/05 05:11:15;;;;;;;11.53;4.13;;;6.00;99.90;;;;;;5070422;28;20237;-74
2021/05/05 05:13:42;;;;;;;9.67;4.27;;;6.00;99.90;;;;;;5069161;28;20652;-74
2021/05/05 05:16:08;;;;;;;8.57;3.70;;;6.00;99.90;;;;;;5068019;28;20202;-75
2021/05/05 05:18:35;;;;;;;7.87;5.40;;;6.00;99.90;;;;;;5071841;28;20259;-69
2021/05/05 05:21:03;;;;;;;11.33;4.37;;;6.00;99.90;;;;;;5069795;28;20199;-77
2021/05/05 05:23:30;;;;;;;10.00;4.33;;;6.00;99.90;;;;;;5070998;28;20198;-71
2021/05/05 05:25:57;;;;;;;8.13;4.53;;;6.10;99.90;;;;;;5068949;28;20205;-75
2021/05/05 05:28:24;;;;;;;7.80;3.97;;;6.20;99.90;;;;;;5070175;28;20195;-75
2021/05/05 05:30:51;;;;;;;10.37;4.80;;;6.20;99.90;;;;;;5069685;28;20233;-72
2021/05/05 05:33:18;;;;;;;12.57;4.87;;;6.30;99.90;;;;;;5068218;28;20203;-75
2021/05/05 05:35:44;;;;;;;8.53;4.10;;;6.30;99.90;;;;;;5068083;28;20207;-71
2021/05/05 05:38:11;;;;;;;10.60;4.40;;;6.30;99.90;;;;;;5068862;28;20194;-76
2021/05/05 05:40:38;;;;;;;13.63;4.67;;;6.40;99.90;;;;;;5072441;28;20749;-74
2021/05/05 05:43:05;;;;;;;13.83;5.17;;;6.40;99.90;;;;;;5068026;28;20210;-70
2021/05/05 05:45:32;;;;;;;12.77;4.60;;;6.40;99.90;;;;;;5070022;28;20198;-74
2021/05/05 05:47:59;;;;;;;13.87;6.03;;;6.50;99.90;;;;;;5070291;28;20651;-72
2021/05/05 05:50:25;;;;;;;12.03;3.57;;;6.60;99.90;;;;;;5072947;28;20587;-72
2021/05/05 05:52:52;;;;;;;12.57;4.17;;;6.70;99.90;;;;;;5067313;28;20252;-73
2021/05/05 05:55:19;;;;;;;12.77;4.70;;;6.80;99.90;;;;;;5069903;28;20224;-71
2021/05/05 05:57:49;;;;;;;10.40;4.13;;;6.80;99.90;;;;;;5067668;28;20217;-71
2021/05/05 06:00:19;;;;;;;10.30;3.90;;;7.00;99.90;;;;;;5069243;28;20203;-72
2021/05/05 06:02:45;;;;;;;11.70;3.63;;;7.00;99.90;;;;;;5067806;28;20195;-73
2021/05/05 06:05:13;;;;;;;8.70;3.73;;;7.00;99.90;;;;;;5071934;28;20214;-74
2021/05/05 06:07:40;;;;;;;8.80;3.37;;;7.00;99.90;;;;;;5069770;28;20265;-75
2021/05/05 06:10:08;;;;;;;6.83;2.87;;;7.00;99.90;;;;;;5068768;28;20214;-73
2021/05/05 06:12:35;;;;;;;10.57;3.40;;;7.10;99.90;;;;;;5066223;28;20237;-75
2021/05/05 06:15:03;;;;;;;5.27;2.93;;;7.20;99.90;;;;;;5069892;28;20202;-75
2021/05/05 06:17:30;;;;;;;7.80;2.90;;;7.30;99.90;;;;;;5069051;28;20207;-72
2021/05/05 06:19:57;;;;;;;7.23;2.73;;;7.10;99.90;;;;;;5069284;28;20195;-75
2021/05/05 06:22:23;;;;;;;5.27;2.93;;;7.00;99.90;;;;;;5069554;28;20256;-71
2021/05/05 06:24:50;;;;;;;4.70;2.37;;;6.80;99.90;;;;;;5069304;28;20210;-75
2021/05/05 06:27:16;;;;;;;6.93;2.80;;;6.70;99.90;;;;;;5069756;28;20203;-73
2021/05/05 06:29:43;;;;;;;8.77;2.83;;;6.70;99.90;;;;;;5066395;28;20233;-74
2021/05/05 06:32:10;;;;;;;7.97;3.00;;;6.90;99.90;;;;;;5072425;28;20207;-75
2021/05/05 06:34:37;;;;;;;10.20;3.37;;;7.10;99.90;;;;;;5072374;28;20195;-78
2021/05/05 06:37:03;;;;;;;5.50;2.90;;;7.30;99.90;;;;;;5070650;28;20210;-74
2021/05/05 06:39:30;;;;;;;8.43;3.50;;;7.60;99.90;;;;;;5069818;28;21135;-74
2021/05/05 06:41:56;;;;;;;8.60;3.50;;;8.10;99.90;;;;;;5070011;28;20198;-72
2021/05/05 06:44:23;;;;;;;13.13;6.03;;;8.40;99.90;;;;;;5095815;28;20197;-74
2021/05/05 06:46:54;;;;;;;6.27;3.07;;;8.50;99.90;;;;;;5093175;28;20205;-72
2021/05/05 06:49:23;;;;;;;7.20;3.17;;;8.30;99.90;;;;;;5092939;28;20190;-75
2021/05/05 06:51:50;;;;;;;8.80;3.47;;;8.10;99.90;;;;;;5090791;28;20291;-75
2021/05/05 06:54:17;;;;;;;5.13;2.83;;;7.90;99.90;;;;;;5080203;28;20199;-72
2021/05/05 06:56:43;;;;;;;9.90;4.37;;;7.90;99.90;;;;;;5079407;28;20202;-75
2021/05/05 06:59:10;;;;;;;4.13;2.50;;;8.10;99.90;;;;;;5079255;28;20203;-76
2021/05/05 07:01:37;;;;;;;7.50;3.20;;;8.40;99.90;;;;;;5069385;28;20202;-75
2021/05/05 07:04:05;;;;;;;7.23;3.20;;;8.60;99.90;;;;;;5071559;28;20655;-74
2021/05/05 07:06:32;;;;;;;6.37;3.10;;;8.80;99.90;;;;;;5068327;28;20197;-72
2021/05/05 07:08:59;;;;;;;5.33;3.13;;;9.00;99.90;;;;;;5070528;28;20203;-71
2021/05/05 07:11:26;;;;;;;8.77;3.07;;;9.20;99.90;;;;;;5068098;28;20226;-70
2021/05/05 07:13:53;;;;;;;5.67;3.03;;;10.20;99.90;;;;;;5071819;28;20576;-73
2021/05/05 07:16:20;;;;;;;8.17;2.70;;;10.70;99.90;;;;;;5068231;28;20199;-75
2021/05/05 07:18:47;;;;;;;9.43;2.70;;;10.40;99.90;;;;;;5074218;28;20681;-70
2021/05/05 07:21:14;;;;;;;8.57;2.83;;;10.10;99.90;;;;;;5075239;28;20660;-74
2021/05/05 07:23:43;;;;;;;6.30;2.47;;;9.80;99.90;;;;;;5076244;28;20239;-75
2021/05/05 07:26:09;;;;;;;5.90;2.07;;;9.70;99.90;;;;;;5068310;28;20203;-74
2021/05/05 07:28:36;;;;;;;4.60;2.20;;;9.40;99.90;;;;;;5068671;28;20199;-72
2021/05/05 07:31:03;;;;;;;7.53;2.80;;;9.00;99.90;;;;;;5068737;28;20218;-73
2021/05/05 07:33:29;;;;;;;6.20;2.50;;;9.00;99.90;;;;;;5066984;28;20541;-70
2021/05/05 07:35:57;;;;;;;6.83;2.13;;;9.30;99.90;;;;;;5068309;28;20202;-74
2021/05/05 07:38:47;;;;;;;6.47;2.40;;;9.60;99.90;;;;;;5069537;28;20222;-70
2021/05/05 07:46:45;;;;;;;6.87;1.97;;;11.70;99.90;;;;;;5087152;28;20193;-67
2021/05/05 07:49:15;;;;;;;6.23;2.40;;;11.80;99.90;;;;;;5080661;28;20610;-73
2021/05/05 07:51:42;;;;;;;8.67;2.40;;;11.10;99.90;;;;;;5069845;28;20234;-72
2021/05/05 07:54:09;;;;;;;8.67;2.87;;;11.60;99.90;;;;;;5072161;28;20581;-73
2021/05/05 07:56:36;;;;;;;6.30;2.20;;;11.80;99.90;;;;;;5069171;28;20215;-72
2021/05/05 07:59:04;;;;;;;4.17;2.00;;;11.70;99.90;;;;;;5069646;28;20234;-70
2021/05/05 08:01:31;;;;;;;4.97;1.80;;;12.00;99.90;;;;;;5071130;28;20705;-72
2021/05/05 08:03:58;;;;;;;6.50;2.10;;;11.70;99.90;;;;;;5087118;28;20194;-72
2021/05/05 08:06:25;;;;;;;7.60;2.30;;;12.00;99.90;;;;;;5071601;28;20249;-72
2021/05/05 08:08:52;;;;;;;3.60;1.80;;;12.50;99.90;;;;;;5087286;28;20207;-66
2021/05/05 08:11:19;;;;;;;7.10;2.20;;;11.90;99.90;;;;;;5071388;28;20252;-71
2021/05/05 08:13:48;;;;;;;4.93;1.90;;;12.40;99.90;;;;;;5071102;28;20648;-68
2021/05/05 08:16:14;;;;;;;7.13;2.23;;;13.40;99.90;;;;;;5071074;28;20245;-71
2021/05/05 08:18:41;;;;;;;4.00;1.80;;;14.20;99.90;;;;;;5070957;28;20292;-67
2021/05/05 08:21:08;;;;;;;5.53;2.00;;;13.80;99.90;;;;;;5076802;28;20194;-70
2021/05/05 08:23:35;;;;;;;5.23;1.90;;;13.60;99.90;;;;;;5070497;28;20282;-66
2021/05/05 08:26:02;;;;;;;7.03;2.17;;;13.50;99.90;;;;;;5077560;28;20252;-68
2021/05/05 08:28:28;;;;;;;5.90;1.97;;;13.40;99.90;;;;;;5075610;28;20195;-66
2021/05/05 08:30:56;;;;;;;6.50;1.83;;;13.70;99.90;;;;;;5074795;28;20230;-68
2021/05/05 08:33:23;;;;;;;5.37;2.00;;;14.00;99.90;;;;;;5074462;28;20199;-66
2021/05/05 08:35:49;;;;;;;5.50;1.87;;;14.00;99.90;;;;;;5078274;28;20210;-67
2021/05/05 08:38:16;;;;;;;5.53;2.27;;;14.10;99.90;;;;;;5074092;28;20191;-65
2021/05/05 08:40:43;;;;;;;5.90;2.20;;;13.70;99.90;;;;;;5078332;28;20203;-66
2021/05/05 08:43:09;;;;;;;5.23;2.10;;;13.40;99.90;;;;;;5073966;28;20660;-70
2021/05/05 08:45:36;;;;;;;5.53;1.70;;;13.30;99.90;;;;;;5082336;28;20234;-66
2021/05/05 08:48:05;;;;;;;7.73;2.90;;;13.10;99.90;;;;;;5095242;28;20197;-67
2021/05/05 08:50:34;;;;;;;5.70;2.10;;;13.10;99.90;;;;;;5084957;28;20300;-66
2021/05/05 08:53:00;;;;;;;5.40;1.47;;;13.20;99.90;;;;;;5072940;28;20230;-65
2021/05/05 08:55:29;;;;;;;2.47;2.20;;;13.00;99.90;;;;;;5074685;28;20195;-66
2021/05/05 08:57:56;;;;;;;3.50;1.73;;;13.00;99.90;;;;;;5073619;28;20198;-67
2021/05/05 09:00:25;;;;;;;5.17;2.40;;;13.00;99.90;;;;;;5079222;28;20203;-67
2021/05/05 09:02:53;;;;;;;6.03;2.00;;;13.40;99.90;;;;;;5069894;28;20202;-68
2021/05/05 09:05:21;;;;;;;7.00;2.10;;;13.70;99.90;;;;;;5075090;28;20210;-69
2021/05/05 09:07:47;;;;;;;3.93;1.90;;;13.40;99.90;;;;;;5079684;28;20199;-66
2021/05/05 09:10:17;;;;;;;5.20;2.10;;;13.20;99.90;;;;;;5082437;28;20237;-65
2021/05/05 09:12:46;;;;;;;5.57;2.57;;;13.20;99.90;;;;;;5072839;28;20221;-66
2021/05/05 09:15:16;;;;;;;3.27;2.37;;;12.50;99.90;;;;;;5074554;28;20191;-65
2021/05/05 09:17:46;;;;;;;6.13;2.20;;;12.80;99.90;;;;;;5073581;28;20210;-66
2021/05/05 09:20:22;;;;;;;5.97;3.03;;;12.80;99.90;;;;;;5073525;28;20687;-65
2021/05/05 09:22:53;;;;;;;5.47;2.57;;;12.40;99.90;;;;;;5072948;28;20195;-65
2021/05/05 09:25:23;;;;;;;3.40;2.30;;;12.20;99.90;;;;;;5079318;28;20244;-67
2021/05/05 09:28:09;;;;;;;6.63;2.30;;;12.30;99.90;;;;;;5090344;28;20667;-68
2021/05/05 09:30:36;;;;;;;3.27;2.30;;;12.70;99.90;;;;;;5082546;28;20286;-66
2021/05/05 09:33:03;;;;;;;8.10;2.73;;;12.60;99.90;;;;;;5072568;28;20656;-65
2021/05/05 09:35:30;;;;;;;6.10;2.47;;;12.40;99.90;;;;;;5073752;28;20268;-66
2021/05/05 09:37:59;;;;;;;3.87;2.17;;;12.60;99.90;;;;;;5077073;28;20244;-65
2021/05/05 09:40:26;;;;;;;5.87;2.80;;;12.80;99.90;;;;;;5094890;28;20323;-67
2021/05/05 09:42:54;;;;;;;4.73;2.60;;;13.10;99.90;;;;;;5090102;28;20659;-64
2021/05/05 09:45:21;;;;;;;3.60;2.13;;;13.20;99.90;;;;;;5072258;28;21098;-67
2021/05/05 09:47:51;;;;;;;7.03;2.43;;;12.90;99.90;;;;;;5073391;28;20208;-69
2021/05/05 09:50:28;;;;;;;4.13;2.03;;;12.70;99.90;;;;;;5077873;28;20218;-71
2021/05/05 09:53:14;;;;;;;6.13;2.90;;;12.10;99.90;;;;;;5093742;28;20291;-70
2021/05/05 09:55:41;;;;;;;3.43;2.20;;;12.00;99.90;;;;;;5086749;28;20267;-71
2021/05/05 09:58:25;;;;;;;4.80;2.23;;;13.00;99.90;;;;;;5094009;28;20550;-71
2021/05/05 10:01:15;;;;;;;4.27;2.77;;;13.60;99.90;;;;;;5080191;28;20211;-70
2021/05/05 10:03:44;;;;;;;5.23;2.30;;;13.60;99.90;;;;;;5081802;28;20285;-71
2021/05/05 10:06:27;;;;;;;5.83;2.50;;;14.30;99.90;;;;;;5084864;28;20202;-71
2021/05/05 10:08:57;;;;;;;2.60;1.80;;;14.40;99.90;;;;;;5075356;28;20191;-71
2021/05/05 10:11:25;;;;;;;5.90;2.17;;;14.10;99.90;;;;;;5113460;28;20221;-71
2021/05/05 10:13:53;;;;;;;4.33;2.10;;;14.20;99.90;;;;;;5077991;28;20211;-70
2021/05/05 10:16:22;;;;;;;5.17;2.00;;;14.30;99.90;;;;;;5072464;28;20288;-70
2021/05/05 10:18:49;;;;;;;4.70;2.60;;;13.70;99.90;;;;;;5073354;28;20648;-71
2021/05/05 10:21:19;;;;;;;4.03;1.97;;;13.30;99.90;;;;;;5072252;28;20202;-70
2021/05/05 10:23:47;;;;;;;3.43;1.90;;;13.50;99.90;;;;;;5072856;28;20187;-71
2021/05/05 10:26:15;;;;;;;2.90;1.67;;;13.70;99.90;;;;;;5078600;28;20209;-70
2021/05/05 10:28:42;;;;;;;6.40;2.40;;;14.10;99.90;;;;;;5092984;28;20206;-71
2021/05/05 10:31:15;;;;;;;4.60;2.40;;;14.20;99.90;;;;;;5078538;28;20218;-70
2021/05/05 10:33:45;;;;;;;5.43;2.03;;;13.40;99.90;;;;;;5082155;28;20285;-70
2021/05/05 10:36:35;;;;;;;3.00;2.17;;;12.80;99.90;;;;;;5079289;28;20202;-70
2021/05/05 10:39:26;;;;;;;6.40;2.30;;;12.70;99.90;;;;;;5072560;28;20227;-71
2021/05/05 10:42:11;;;;;;;6.03;2.77;;;12.90;99.90;;;;;;5072593;28;20610;-70
2021/05/05 10:44:40;;;;;;;5.30;2.73;;;12.60;99.90;;;;;;5071258;28;20649;-71
2021/05/05 10:47:13;;;;;;;2.87;2.20;;;12.10;99.90;;;;;;5088536;28;20705;-71
2021/05/05 10:50:05;;;;;;;5.97;2.70;;;11.70;99.90;;;;;;5079102;28;20195;-70
2021/05/05 10:53:06;;;;;;;3.30;2.27;;;11.70;99.90;;;;;;5088433;28;20235;-71
2021/05/05 10:55:44;;;;;;;5.77;2.53;;;11.50;99.90;;;;;;5072222;28;20201;-71
2021/05/05 10:58:15;;;;;;;3.70;2.70;;;11.80;99.90;;;;;;5072708;28;20187;-71
2021/05/05 11:01:01;;;;;;;5.50;3.80;;;12.40;99.90;;;;;;5071916;28;20256;-72
2021/05/05 11:04:01;;;;;;;5.83;3.90;;;13.60;99.90;;;;;;5072693;28;20206;-71
2021/05/05 11:06:47;;;;;;;6.83;3.50;;;13.30;99.90;;;;;;5082146;28;20244;-71
2021/05/05 11:09:45;;;;;;;4.33;2.47;;;13.30;99.90;;;;;;5088787;28;20198;-71
2021/05/05 11:12:39;;;;;;;6.17;3.60;;;13.50;99.90;;;;;;5072377;28;20222;-71
2021/05/05 11:15:09;;;;;;;6.13;2.90;;;12.80;99.90;;;;;;5067580;28;20569;-71
2021/05/05 11:17:36;;;;;;;3.27;2.07;;;11.90;99.90;;;;;;5072374;28;20213;-72
2021/05/05 11:20:03;;;;;;;5.27;2.70;;;12.00;99.90;;;;;;5070837;28;20199;-69
2021/05/05 11:22:51;;;;;;;4.37;2.40;;;12.00;99.90;;;;;;5072127;28;20203;-71
2021/05/05 11:25:28;;;;;;;6.67;2.50;;;12.30;99.90;;;;;;5066848;28;20210;-71
2021/05/05 11:27:57;;;;;;;4.07;2.30;;;12.50;99.90;;;;;;5092530;28;20190;-70
2021/05/05 11:30:50;;;;;;;3.13;2.60;;;12.90;99.90;;;;;;5076876;28;20261;-70
2021/05/05 11:33:17;;;;;;;5.23;3.00;;;12.40;99.90;;;;;;5071129;28;20195;-72
2021/05/05 11:35:43;;;;;;;7.47;4.20;;;11.80;99.90;;;;;;5084117;28;20210;-67
2021/05/05 11:38:18;;;;;;;7.97;4.00;;;11.20;99.90;;;;;;5081538;28;20210;-71
2021/05/05 11:41:00;;;;;;;4.63;3.80;;;11.00;99.90;;;;;;5073336;28;20201;-67
2021/05/05 11:43:29;;;;;;;5.27;3.90;;;11.30;99.90;;;;;;5072860;28;20205;-68
2021/05/05 11:45:59;;;;;;;7.00;3.37;;;11.10;99.90;;;;;;5071006;28;20199;-68
2021/05/05 11:48:27;;;;;;;5.40;2.40;;;11.10;99.90;;;;;;5074031;28;20198;-68
2021/05/05 11:50:54;;;;;;;4.57;2.37;;;11.30;99.90;;;;;;5076724;28;20276;-68
2021/05/05 11:53:30;;;;;;;4.03;2.50;;;11.50;99.90;;;;;;5079131;28;20239;-68
2021/05/05 11:55:56;;;;;;;6.83;2.40;;;12.10;99.90;;;;;;5077403;28;20198;-70
2021/05/05 11:58:24;;;;;;;3.90;2.53;;;12.30;99.90;;;;;;5073114;28;20261;-70
2021/05/05 12:00:52;;;;;;;3.80;2.03;;;12.40;99.90;;;;;;5078833;28;20643;-70
2021/05/05 12:03:23;;;;;;;4.13;2.23;;;13.10;99.90;;;;;;5077953;28;20202;-69
2021/05/05 12:05:50;;;;;;;5.93;2.67;;;12.80;99.90;;;;;;5075985;28;20206;-69
2021/05/05 12:08:19;;;;;;;7.97;2.37;;;13.10;99.90;;;;;;5076183;28;20256;-68
2021/05/05 12:10:47;;;;;;;5.30;2.83;;;13.20;99.90;;;;;;5080931;28;20614;-65
2021/05/05 12:13:16;;;;;;;2.00;1.80;;;13.20;99.90;;;;;;5082152;28;20202;-65
2021/05/05 12:15:49;;;;;;;5.63;2.47;;;13.30;99.90;;;;;;5089649;28;20203;-66
2021/05/05 12:18:19;;;;;;;6.13;2.33;;;12.60;99.90;;;;;;5084244;28;20199;-68
2021/05/05 12:20:48;;;;;;;4.80;2.97;;;11.80;99.90;;;;;;5076842;28;20206;-71
2021/05/05 12:23:16;;;;;;;3.63;2.30;;;11.30;99.90;;;;;;5076383;28;20211;-72
2021/05/05 12:25:43;;;;;;;5.20;3.00;;;11.10;99.90;;;;;;5077392;28;20210;-70
2021/05/05 12:28:13;;;;;;;4.80;2.90;;;11.20;99.90;;;;;;5079572;28;20240;-73
2021/05/05 12:30:51;;;;;;;7.87;2.90;;;11.40;99.90;;;;;;5076619;28;20222;-72
2021/05/05 12:33:20;;;;;;;4.97;2.10;;;12.40;99.90;;;;;;5074799;28;20272;-72
2021/05/05 12:35:48;;;;;;;5.27;2.67;;;13.00;99.90;;;;;;5076135;28;20260;-72
2021/05/05 12:38:17;;;;;;;4.57;2.07;;;13.70;99.90;;;;;;5077947;28;20195;-71
2021/05/05 12:40:45;;;;;;;2.50;2.30;;;14.70;99.90;;;;;;5077384;28;20210;-72
2021/05/05 12:43:17;;;;;;;5.63;2.50;;;14.80;99.90;;;;;;5074073;28;20198;-72
2021/05/05 12:45:45;;;;;;;3.13;2.23;;;15.50;99.90;;;;;;5073945;28;20259;-68
2021/05/05 12:48:12;;;;;;;3.67;2.30;;;15.40;99.90;;;;;;5075965;28;20199;-70
2021/05/05 12:50:41;;;;;;;5.17;1.90;;;15.60;99.90;;;;;;5077989;28;20607;-72
2021/05/05 12:53:09;;;;;;;5.87;3.03;;;15.80;99.90;;;;;;5078862;28;20222;-71
2021/05/05 12:55:38;;;;;;;3.70;2.50;;;15.50;99.90;;;;;;5075966;28;20601;-72
2021/05/05 12:58:08;;;;;;;4.27;2.20;;;14.90;99.90;;;;;;5074022;28;20203;-73
2021/05/05 13:00:36;;;;;;;3.83;2.20;;;14.20;99.90;;;;;;5075866;28;20279;-73
2021/05/05 13:03:08;;;;;;;5.03;2.60;;;14.60;99.90;;;;;;5081529;28;20382;-69
2021/05/05 13:05:57;;;;;;;4.77;2.60;;;14.40;99.90;;;;;;5079761;28;20560;-66
2021/05/05 13:08:41;;;;;;;4.03;3.07;;;13.70;99.90;;;;;;5072658;28;20203;-66